sensor_id;sensor_type;location;lat;lon;timestamp;temperature;humidity
19941;DHT22;10132;50.864;5.176;2023-04-24T00:01:42;9.50;99.90
19941;DHT22;10132;50.864;5.176;2023-04-24T00:03:44;9.50;99.90
19941;DHT22;10132;50.864;5.176;2023-04-24T00:05:46;9.50;99.90
19941;DHT22;10132;50.864;5.176;2023-04-24T00:07:48;9.50;99.90
19941;DHT22;10132;50.864;5.176;2023-04-24T00:09:53;9.40;99.90
19941;DHT22;10132;50.864;5.176;2023-04-24T00:11:55;9.40;99.90
19941;DHT22;10132;50.864;5.176;2023-04-24T00:13:57;9.40;99.90
19941;DHT22;10132;50.864;5.176;2023-04-24T00:15:59;9.40;99.90
19941;DHT22;10132;50.864;5.176;2023-04-24T00:18:02;9.50;99.90
19941;DHT22;10132;50.864;5.176;2023-04-24T00:20:05;9.40;99.90
19941;DHT22;10132;50.864;5.176;2023-04-24T00:22:07;9.40;99.90
19941;DHT22;10132;50.864;5.176;2023-04-24T00:24:09;9.40;99.90
19941;DHT22;10132;50.864;5.176;2023-04-24T00:26:11;9.40;99.90
19941;DHT22;10132;50.864;5.176;2023-04-24T00:28:13;9.40;99.90
19941;DHT22;10132;50.864;5.176;2023-04-24T00:30:16;9.50;99.90
19941;DHT22;10132;50.864;5.176;2023-04-24T00:32:18;9.40;99.90
19941;DHT22;10132;50.864;5.176;2023-04-24T00:34:21;9.40;99.90
19941;DHT22;10132;50.864;5.176;2023-04-24T00:36:23;9.40;99.90
19941;DHT22;10132;50.864;5.176;2023-04-24T00:38:25;9.40;99.90
19941;DHT22;10132;50.864;5.176;2023-04-24T00:40:27;9.50;99.90
19941;DHT22;10132;50.864;5.176;2023-04-24T00:42:29;9.50;99.90
19941;DHT22;10132;50.864;5.176;2023-04-24T00:44:32;9.50;99.90
19941;DHT22;10132;50.864;5.176;2023-04-24T00:46:34;9.50;99.90
19941;DHT22;10132;50.864;5.176;2023-04-24T00:48:39;9.50;99.90
19941;DHT22;10132;50.864;5.176;2023-04-24T00:50:42;9.50;99.90
19941;DHT22;10132;50.864;5.176;2023-04-24T00:52:44;9.50;99.90
19941;DHT22;10132;50.864;5.176;2023-04-24T00:54:46;9.50;99.90
19941;DHT22;10132;50.864;5.176;2023-04-24T00:56:48;9.50;99.90
19941;DHT22;10132;50.864;5.176;2023-04-24T00:58:52;9.50;99.90
19941;DHT22;10132;50.864;5.176;2023-04-24T01:00:54;9.50;99.90
19941;DHT22;10132;50.864;5.176;2023-04-24T01:02:59;9.50;99.90
19941;DHT22;10132;50.864;5.176;2023-04-24T01:05:03;9.50;99.90
19941;DHT22;10132;50.864;5.176;2023-04-24T01:07:06;9.40;99.90
19941;DHT22;10132;50.864;5.176;2023-04-24T01:09:12;9.40;99.90
19941;DHT22;10132;50.864;5.176;2023-04-24T01:11:15;9.40;99.90
19941;DHT22;10132;50.864;5.176;2023-04-24T01:13:17;9.50;99.90
19941;DHT22;10132;50.864;5.176;2023-04-24T01:15:19;9.40;99.90
19941;DHT22;10132;50.864;5.176;2023-04-24T01:17:21;9.40;99.90
19941;DHT22;10132;50.864;5.176;2023-04-24T01:19:23;9.40;99.90
19941;DHT22;10132;50.864;5.176;2023-04-24T01:21:27;9.40;99.90
19941;DHT22;10132;50.864;5.176;2023-04-24T01:23:32;9.40;99.90
19941;DHT22;10132;50.864;5.176;2023-04-24T01:25:34;9.40;99.90
19941;DHT22;10132;50.864;5.176;2023-04-24T01:27:36;9.40;99.90
19941;DHT22;10132;50.864;5.176;2023-04-24T01:29:46;9.40;99.90
19941;DHT22;10132;50.864;5.176;2023-04-24T01:31:50;9.40;99.90
19941;DHT22;10132;50.864;5.176;2023-04-24T01:33:52;9.40;99.90
19941;DHT22;10132;50.864;5.176;2023-04-24T01:35:55;9.40;99.90
19941;DHT22;10132;50.864;5.176;2023-04-24T01:37:57;9.40;99.90
19941;DHT22;10132;50.864;5.176;2023-04-24T01:40:00;9.40;99.90
19941;DHT22;10132;50.864;5.176;2023-04-24T01:42:02;9.30;99.90
19941;DHT22;10132;50.864;5.176;2023-04-24T01:44:04;9.30;99.90
19941;DHT22;10132;50.864;5.176;2023-04-24T01:46:07;9.30;99.90
19941;DHT22;10132;50.864;5.176;2023-04-24T01:48:10;9.40;99.90
19941;DHT22;10132;50.864;5.176;2023-04-24T01:50:12;9.30;99.90
19941;DHT22;10132;50.864;5.176;2023-04-24T01:52:14;9.30;99.90
19941;DHT22;10132;50.864;5.176;2023-04-24T01:54:16;9.30;99.90
19941;DHT22;10132;50.864;5.176;2023-04-24T01:56:20;9.30;99.90
19941;DHT22;10132;50.864;5.176;2023-04-24T01:58:23;9.20;99.90
19941;DHT22;10132;50.864;5.176;2023-04-24T02:00:25;9.20;99.90
19941;DHT22;10132;50.864;5.176;2023-04-24T02:02:29;9.20;99.90
19941;DHT22;10132;50.864;5.176;2023-04-24T02:04:31;9.20;99.90
19941;DHT22;10132;50.864;5.176;2023-04-24T02:06:32;9.10;99.90
19941;DHT22;10132;50.864;5.176;2023-04-24T02:08:34;9.10;99.90
19941;DHT22;10132;50.864;5.176;2023-04-24T02:10:36;9.10;99.90
19941;DHT22;10132;50.864;5.176;2023-04-24T02:12:38;9.10;99.90
19941;DHT22;10132;50.864;5.176;2023-04-24T02:14:40;9.10;99.90
19941;DHT22;10132;50.864;5.176;2023-04-24T02:16:42;9.10;99.90
19941;DHT22;10132;50.864;5.176;2023-04-24T02:18:46;9.10;99.90
19941;DHT22;10132;50.864;5.176;2023-04-24T02:20:48;9.10;99.90
19941;DHT22;10132;50.864;5.176;2023-04-24T02:22:50;9.10;99.90
19941;DHT22;10132;50.864;5.176;2023-04-24T02:24:52;9.00;99.90
19941;DHT22;10132;50.864;5.176;2023-04-24T02:26:53;9.00;99.90
19941;DHT22;10132;50.864;5.176;2023-04-24T02:28:56;9.00;99.90
19941;DHT22;10132;50.864;5.176;2023-04-24T02:30:58;9.00;99.90
19941;DHT22;10132;50.864;5.176;2023-04-24T02:33:00;8.90;99.90
19941;DHT22;10132;50.864;5.176;2023-04-24T02:35:04;8.90;99.90
19941;DHT22;10132;50.864;5.176;2023-04-24T02:37:06;8.80;99.90
19941;DHT22;10132;50.864;5.176;2023-04-24T02:39:08;8.80;99.90
19941;DHT22;10132;50.864;5.176;2023-04-24T02:41:10;8.80;99.90
19941;DHT22;10132;50.864;5.176;2023-04-24T02:43:12;8.80;99.90
19941;DHT22;10132;50.864;5.176;2023-04-24T02:45:14;8.70;99.90
19941;DHT22;10132;50.864;5.176;2023-04-24T02:47:16;8.70;99.90
19941;DHT22;10132;50.864;5.176;2023-04-24T02:49:18;8.70;99.90
19941;DHT22;10132;50.864;5.176;2023-04-24T02:51:21;8.70;99.90
19941;DHT22;10132;50.864;5.176;2023-04-24T02:53:23;8.70;99.90
19941;DHT22;10132;50.864;5.176;2023-04-24T02:55:25;8.60;99.90
19941;DHT22;10132;50.864;5.176;2023-04-24T02:57:27;8.60;99.90
19941;DHT22;10132;50.864;5.176;2023-04-24T02:59:29;8.60;99.90
19941;DHT22;10132;50.864;5.176;2023-04-24T03:01:32;8.50;99.90
19941;DHT22;10132;50.864;5.176;2023-04-24T03:03:34;8.50;99.90
19941;DHT22;10132;50.864;5.176;2023-04-24T03:05:36;8.40;99.90
19941;DHT22;10132;50.864;5.176;2023-04-24T03:07:39;8.50;99.90
19941;DHT22;10132;50.864;5.176;2023-04-24T03:09:41;8.50;99.90
19941;DHT22;10132;50.864;5.176;2023-04-24T03:11:43;8.50;99.90
19941;DHT22;10132;50.864;5.176;2023-04-24T03:13:45;8.50;99.90
19941;DHT22;10132;50.864;5.176;2023-04-24T03:15:47;8.50;99.90
19941;DHT22;10132;50.864;5.176;2023-04-24T03:17:49;8.50;99.90
19941;DHT22;10132;50.864;5.176;2023-04-24T03:19:51;8.60;99.90
19941;DHT22;10132;50.864;5.176;2023-04-24T03:21:53;8.60;99.90
19941;DHT22;10132;50.864;5.176;2023-04-24T03:23:56;8.60;99.90
19941;DHT22;10132;50.864;5.176;2023-04-24T03:25:58;8.60;99.90
19941;DHT22;10132;50.864;5.176;2023-04-24T03:28:00;8.60;99.90
19941;DHT22;10132;50.864;5.176;2023-04-24T03:30:02;8.50;99.90
19941;DHT22;10132;50.864;5.176;2023-04-24T03:32:03;8.50;99.90
19941;DHT22;10132;50.864;5.176;2023-04-24T03:34:05;8.60;99.90
19941;DHT22;10132;50.864;5.176;2023-04-24T03:36:07;8.50;99.90
19941;DHT22;10132;50.864;5.176;2023-04-24T03:38:09;8.60;99.90
19941;DHT22;10132;50.864;5.176;2023-04-24T03:40:13;8.50;99.90
19941;DHT22;10132;50.864;5.176;2023-04-24T03:42:15;8.50;99.90
19941;DHT22;10132;50.864;5.176;2023-04-24T03:44:17;8.50;99.90
19941;DHT22;10132;50.864;5.176;2023-04-24T03:46:19;8.50;99.90
19941;DHT22;10132;50.864;5.176;2023-04-24T03:48:21;8.50;99.90
19941;DHT22;10132;50.864;5.176;2023-04-24T03:50:23;8.40;99.90
19941;DHT22;10132;50.864;5.176;2023-04-24T03:52:25;8.40;99.90
19941;DHT22;10132;50.864;5.176;2023-04-24T03:54:26;8.40;99.90
19941;DHT22;10132;50.864;5.176;2023-04-24T03:56:30;8.50;99.90
19941;DHT22;10132;50.864;5.176;2023-04-24T03:58:32;8.50;99.90
19941;DHT22;10132;50.864;5.176;2023-04-24T04:00:34;8.60;99.90
19941;DHT22;10132;50.864;5.176;2023-04-24T04:02:38;8.50;99.90
19941;DHT22;10132;50.864;5.176;2023-04-24T04:04:39;8.50;99.90
19941;DHT22;10132;50.864;5.176;2023-04-24T04:06:42;8.40;99.90
19941;DHT22;10132;50.864;5.176;2023-04-24T04:08:44;8.40;99.90
19941;DHT22;10132;50.864;5.176;2023-04-24T04:10:46;8.40;99.90
19941;DHT22;10132;50.864;5.176;2023-04-24T04:12:49;8.30;99.90
19941;DHT22;10132;50.864;5.176;2023-04-24T04:14:51;8.30;99.90
19941;DHT22;10132;50.864;5.176;2023-04-24T04:16:53;8.30;99.90
19941;DHT22;10132;50.864;5.176;2023-04-24T04:18:55;8.20;99.90
19941;DHT22;10132;50.864;5.176;2023-04-24T04:20:57;8.20;99.90
19941;DHT22;10132;50.864;5.176;2023-04-24T04:22:59;8.30;99.90
19941;DHT22;10132;50.864;5.176;2023-04-24T04:25:01;8.20;99.90
19941;DHT22;10132;50.864;5.176;2023-04-24T04:27:03;8.20;99.90
19941;DHT22;10132;50.864;5.176;2023-04-24T04:29:06;8.20;99.90
19941;DHT22;10132;50.864;5.176;2023-04-24T04:31:08;8.20;99.90
19941;DHT22;10132;50.864;5.176;2023-04-24T04:33:10;8.20;99.90
19941;DHT22;10132;50.864;5.176;2023-04-24T04:35:12;8.20;99.90
19941;DHT22;10132;50.864;5.176;2023-04-24T04:37:14;8.20;99.90
19941;DHT22;10132;50.864;5.176;2023-04-24T04:39:16;8.20;99.90
19941;DHT22;10132;50.864;5.176;2023-04-24T04:41:19;8.20;99.90
19941;DHT22;10132;50.864;5.176;2023-04-24T04:43:21;8.30;99.90
19941;DHT22;10132;50.864;5.176;2023-04-24T04:45:24;8.20;99.90
19941;DHT22;10132;50.864;5.176;2023-04-24T04:47:28;8.30;99.90
19941;DHT22;10132;50.864;5.176;2023-04-24T04:49:33;8.20;99.90
19941;DHT22;10132;50.864;5.176;2023-04-24T04:51:35;8.20;99.90
19941;DHT22;10132;50.864;5.176;2023-04-24T04:53:37;8.20;99.90
19941;DHT22;10132;50.864;5.176;2023-04-24T04:55:39;8.20;99.90
19941;DHT22;10132;50.864;5.176;2023-04-24T04:57:40;8.30;99.90
19941;DHT22;10132;50.864;5.176;2023-04-24T04:59:42;8.30;99.90
19941;DHT22;10132;50.864;5.176;2023-04-24T05:01:46;8.30;99.90
19941;DHT22;10132;50.864;5.176;2023-04-24T05:03:48;8.30;99.90
19941;DHT22;10132;50.864;5.176;2023-04-24T05:05:50;8.30;99.90
19941;DHT22;10132;50.864;5.176;2023-04-24T05:07:52;8.30;99.90
19941;DHT22;10132;50.864;5.176;2023-04-24T05:09:54;8.30;99.90
19941;DHT22;10132;50.864;5.176;2023-04-24T05:11:56;8.30;99.90
19941;DHT22;10132;50.864;5.176;2023-04-24T05:13:58;8.40;99.90
19941;DHT22;10132;50.864;5.176;2023-04-24T05:16:00;8.30;99.90
19941;DHT22;10132;50.864;5.176;2023-04-24T05:18:03;8.40;99.90
19941;DHT22;10132;50.864;5.176;2023-04-24T05:20:06;8.40;99.90
19941;DHT22;10132;50.864;5.176;2023-04-24T05:22:09;8.30;99.90
19941;DHT22;10132;50.864;5.176;2023-04-24T05:24:12;8.30;99.90
19941;DHT22;10132;50.864;5.176;2023-04-24T05:26:14;8.40;99.90
19941;DHT22;10132;50.864;5.176;2023-04-24T05:28:16;8.40;99.90
19941;DHT22;10132;50.864;5.176;2023-04-24T05:30:17;8.40;99.90
19941;DHT22;10132;50.864;5.176;2023-04-24T05:32:20;8.40;99.90
19941;DHT22;10132;50.864;5.176;2023-04-24T05:34:23;8.40;99.90
19941;DHT22;10132;50.864;5.176;2023-04-24T05:36:25;8.30;99.90
19941;DHT22;10132;50.864;5.176;2023-04-24T05:38:27;8.30;99.90
19941;DHT22;10132;50.864;5.176;2023-04-24T05:40:29;8.40;99.90
19941;DHT22;10132;50.864;5.176;2023-04-24T05:42:31;8.40;99.90
19941;DHT22;10132;50.864;5.176;2023-04-24T05:44:33;8.40;99.90
19941;DHT22;10132;50.864;5.176;2023-04-24T05:46:35;8.40;99.90
19941;DHT22;10132;50.864;5.176;2023-04-24T05:48:37;8.40;99.90
19941;DHT22;10132;50.864;5.176;2023-04-24T05:50:40;8.50;99.90
19941;DHT22;10132;50.864;5.176;2023-04-24T05:52:42;8.50;99.90
19941;DHT22;10132;50.864;5.176;2023-04-24T05:54:44;8.50;99.90
19941;DHT22;10132;50.864;5.176;2023-04-24T05:56:46;8.50;99.90
19941;DHT22;10132;50.864;5.176;2023-04-24T05:58:48;8.50;99.90
19941;DHT22;10132;50.864;5.176;2023-04-24T06:00:50;8.50;99.90
19941;DHT22;10132;50.864;5.176;2023-04-24T06:02:52;8.40;99.90
19941;DHT22;10132;50.864;5.176;2023-04-24T06:04:54;8.40;99.90
19941;DHT22;10132;50.864;5.176;2023-04-24T06:06:59;8.40;99.90
19941;DHT22;10132;50.864;5.176;2023-04-24T06:09:01;8.30;99.90
19941;DHT22;10132;50.864;5.176;2023-04-24T06:11:03;8.40;99.90
19941;DHT22;10132;50.864;5.176;2023-04-24T06:13:05;8.30;99.90
19941;DHT22;10132;50.864;5.176;2023-04-24T06:15:08;8.30;99.90
19941;DHT22;10132;50.864;5.176;2023-04-24T06:17:10;8.40;99.90
19941;DHT22;10132;50.864;5.176;2023-04-24T06:19:12;8.40;99.90
19941;DHT22;10132;50.864;5.176;2023-04-24T06:21:16;8.30;99.90
19941;DHT22;10132;50.864;5.176;2023-04-24T06:23:19;8.30;99.90
19941;DHT22;10132;50.864;5.176;2023-04-24T06:25:21;8.30;99.90
19941;DHT22;10132;50.864;5.176;2023-04-24T06:27:23;8.30;99.90
19941;DHT22;10132;50.864;5.176;2023-04-24T06:29:25;8.20;99.90
19941;DHT22;10132;50.864;5.176;2023-04-24T06:31:27;8.20;99.90
19941;DHT22;10132;50.864;5.176;2023-04-24T06:33:29;8.20;99.90
19941;DHT22;10132;50.864;5.176;2023-04-24T06:35:31;8.20;99.90
19941;DHT22;10132;50.864;5.176;2023-04-24T06:37:33;8.30;99.90
19941;DHT22;10132;50.864;5.176;2023-04-24T06:39:36;8.20;99.90
19941;DHT22;10132;50.864;5.176;2023-04-24T06:41:38;8.30;99.90
19941;DHT22;10132;50.864;5.176;2023-04-24T06:43:40;8.30;99.90
19941;DHT22;10132;50.864;5.176;2023-04-24T06:45:42;8.30;99.90
19941;DHT22;10132;50.864;5.176;2023-04-24T06:47:46;8.30;99.90
19941;DHT22;10132;50.864;5.176;2023-04-24T06:49:48;8.30;99.90
19941;DHT22;10132;50.864;5.176;2023-04-24T06:51:51;8.20;99.90
19941;DHT22;10132;50.864;5.176;2023-04-24T06:53:54;8.20;99.90
19941;DHT22;10132;50.864;5.176;2023-04-24T06:55:57;8.20;99.90
19941;DHT22;10132;50.864;5.176;2023-04-24T06:57:59;8.20;99.90
19941;DHT22;10132;50.864;5.176;2023-04-24T07:00:02;8.30;99.90
19941;DHT22;10132;50.864;5.176;2023-04-24T07:02:05;8.30;99.90
19941;DHT22;10132;50.864;5.176;2023-04-24T07:04:07;8.30;99.90
19941;DHT22;10132;50.864;5.176;2023-04-24T07:06:09;8.30;99.90
19941;DHT22;10132;50.864;5.176;2023-04-24T07:08:13;8.40;99.90
19941;DHT22;10132;50.864;5.176;2023-04-24T07:10:17;8.40;99.90
19941;DHT22;10132;50.864;5.176;2023-04-24T07:12:20;8.40;99.90
19941;DHT22;10132;50.864;5.176;2023-04-24T07:14:22;8.40;99.90
19941;DHT22;10132;50.864;5.176;2023-04-24T07:16:24;8.50;99.90
19941;DHT22;10132;50.864;5.176;2023-04-24T07:18:26;8.50;99.90
19941;DHT22;10132;50.864;5.176;2023-04-24T07:20:28;8.40;99.90
19941;DHT22;10132;50.864;5.176;2023-04-24T07:22:30;8.30;99.90
19941;DHT22;10132;50.864;5.176;2023-04-24T07:24:32;8.40;99.90
19941;DHT22;10132;50.864;5.176;2023-04-24T07:26:34;8.40;99.90
19941;DHT22;10132;50.864;5.176;2023-04-24T07:28:37;8.40;99.90
19941;DHT22;10132;50.864;5.176;2023-04-24T07:30:39;8.40;99.90
19941;DHT22;10132;50.864;5.176;2023-04-24T07:32:41;8.30;99.90
19941;DHT22;10132;50.864;5.176;2023-04-24T07:34:43;8.30;99.90
19941;DHT22;10132;50.864;5.176;2023-04-24T07:36:45;8.30;99.90
19941;DHT22;10132;50.864;5.176;2023-04-24T07:38:48;8.30;99.90
19941;DHT22;10132;50.864;5.176;2023-04-24T07:40:50;8.30;99.90
19941;DHT22;10132;50.864;5.176;2023-04-24T07:42:52;8.30;99.90
19941;DHT22;10132;50.864;5.176;2023-04-24T07:44:55;8.30;99.90
19941;DHT22;10132;50.864;5.176;2023-04-24T07:46:57;8.30;99.90
19941;DHT22;10132;50.864;5.176;2023-04-24T07:48:59;8.40;99.90
19941;DHT22;10132;50.864;5.176;2023-04-24T07:51:01;8.40;99.90
19941;DHT22;10132;50.864;5.176;2023-04-24T07:53:03;8.40;99.90
19941;DHT22;10132;50.864;5.176;2023-04-24T07:55:06;8.40;99.90
19941;DHT22;10132;50.864;5.176;2023-04-24T07:57:08;8.50;99.90
19941;DHT22;10132;50.864;5.176;2023-04-24T07:59:10;8.60;99.90
19941;DHT22;10132;50.864;5.176;2023-04-24T08:01:13;8.60;99.90
19941;DHT22;10132;50.864;5.176;2023-04-24T08:03:16;8.60;99.90
19941;DHT22;10132;50.864;5.176;2023-04-24T08:05:20;8.60;99.90
19941;DHT22;10132;50.864;5.176;2023-04-24T08:07:22;8.80;99.90
19941;DHT22;10132;50.864;5.176;2023-04-24T08:09:25;8.80;99.90
19941;DHT22;10132;50.864;5.176;2023-04-24T08:11:27;8.80;99.90
19941;DHT22;10132;50.864;5.176;2023-04-24T08:13:29;8.90;99.90
19941;DHT22;10132;50.864;5.176;2023-04-24T08:15:31;9.00;99.90
19941;DHT22;10132;50.864;5.176;2023-04-24T08:17:34;9.00;99.90
19941;DHT22;10132;50.864;5.176;2023-04-24T08:19:36;9.20;99.90
19941;DHT22;10132;50.864;5.176;2023-04-24T08:21:38;9.30;99.90
19941;DHT22;10132;50.864;5.176;2023-04-24T08:23:40;9.40;99.90
19941;DHT22;10132;50.864;5.176;2023-04-24T08:25:42;9.40;99.90
19941;DHT22;10132;50.864;5.176;2023-04-24T08:27:44;9.30;99.90
19941;DHT22;10132;50.864;5.176;2023-04-24T08:29:47;9.20;99.90
19941;DHT22;10132;50.864;5.176;2023-04-24T08:31:48;9.10;99.90
19941;DHT22;10132;50.864;5.176;2023-04-24T08:33:52;9.00;99.90
19941;DHT22;10132;50.864;5.176;2023-04-24T08:35:54;9.00;99.90
19941;DHT22;10132;50.864;5.176;2023-04-24T08:37:56;9.10;99.90
19941;DHT22;10132;50.864;5.176;2023-04-24T08:39:58;9.20;99.90
19941;DHT22;10132;50.864;5.176;2023-04-24T08:42:00;9.10;99.90
19941;DHT22;10132;50.864;5.176;2023-04-24T08:44:09;9.00;99.90
19941;DHT22;10132;50.864;5.176;2023-04-24T08:46:13;9.00;99.90
19941;DHT22;10132;50.864;5.176;2023-04-24T08:48:15;9.10;99.90
19941;DHT22;10132;50.864;5.176;2023-04-24T08:50:20;9.10;99.90
19941;DHT22;10132;50.864;5.176;2023-04-24T08:52:22;9.20;99.90
19941;DHT22;10132;50.864;5.176;2023-04-24T08:54:25;9.30;99.90
19941;DHT22;10132;50.864;5.176;2023-04-24T08:56:28;9.30;99.90
19941;DHT22;10132;50.864;5.176;2023-04-24T08:58:31;9.40;99.90
19941;DHT22;10132;50.864;5.176;2023-04-24T09:00:33;9.20;99.90
19941;DHT22;10132;50.864;5.176;2023-04-24T09:02:35;9.10;99.90
19941;DHT22;10132;50.864;5.176;2023-04-24T09:04:38;9.00;99.90
19941;DHT22;10132;50.864;5.176;2023-04-24T09:06:42;9.10;99.90
19941;DHT22;10132;50.864;5.176;2023-04-24T09:08:45;9.30;99.90
19941;DHT22;10132;50.864;5.176;2023-04-24T09:10:47;9.40;99.90
19941;DHT22;10132;50.864;5.176;2023-04-24T09:12:50;9.70;99.90
19941;DHT22;10132;50.864;5.176;2023-04-24T09:14:52;9.80;99.90
19941;DHT22;10132;50.864;5.176;2023-04-24T09:16:55;9.90;99.90
19941;DHT22;10132;50.864;5.176;2023-04-24T09:18:57;10.00;99.90
19941;DHT22;10132;50.864;5.176;2023-04-24T09:21:04;10.00;99.90
19941;DHT22;10132;50.864;5.176;2023-04-24T09:23:09;10.20;99.90
19941;DHT22;10132;50.864;5.176;2023-04-24T09:25:16;10.80;99.90
19941;DHT22;10132;50.864;5.176;2023-04-24T09:27:18;11.00;99.90
19941;DHT22;10132;50.864;5.176;2023-04-24T09:29:20;11.10;99.90
19941;DHT22;10132;50.864;5.176;2023-04-24T09:31:22;10.90;99.90
19941;DHT22;10132;50.864;5.176;2023-04-24T09:33:25;10.80;99.90
19941;DHT22;10132;50.864;5.176;2023-04-24T09:35:27;10.60;99.90
19941;DHT22;10132;50.864;5.176;2023-04-24T09:37:29;10.70;99.90
19941;DHT22;10132;50.864;5.176;2023-04-24T09:39:33;10.90;99.90
19941;DHT22;10132;50.864;5.176;2023-04-24T09:41:35;11.10;99.90
19941;DHT22;10132;50.864;5.176;2023-04-24T09:43:37;11.10;99.90
19941;DHT22;10132;50.864;5.176;2023-04-24T09:45:39;11.10;99.90
19941;DHT22;10132;50.864;5.176;2023-04-24T09:47:42;10.90;99.90
19941;DHT22;10132;50.864;5.176;2023-04-24T09:49:43;10.60;99.90
19941;DHT22;10132;50.864;5.176;2023-04-24T09:51:45;10.40;99.90
19941;DHT22;10132;50.864;5.176;2023-04-24T09:53:47;10.20;99.90
19941;DHT22;10132;50.864;5.176;2023-04-24T09:55:51;10.20;99.90
19941;DHT22;10132;50.864;5.176;2023-04-24T09:57:57;10.10;99.90
19941;DHT22;10132;50.864;5.176;2023-04-24T10:00:00;10.10;99.90
19941;DHT22;10132;50.864;5.176;2023-04-24T10:02:03;10.10;99.90
19941;DHT22;10132;50.864;5.176;2023-04-24T10:04:18;10.10;99.90
19941;DHT22;10132;50.864;5.176;2023-04-24T10:06:20;10.20;99.90
19941;DHT22;10132;50.864;5.176;2023-04-24T10:08:23;10.60;99.90
19941;DHT22;10132;50.864;5.176;2023-04-24T10:10:26;10.90;99.90
19941;DHT22;10132;50.864;5.176;2023-04-24T10:12:29;11.10;99.90
19941;DHT22;10132;50.864;5.176;2023-04-24T10:14:32;11.50;99.90
19941;DHT22;10132;50.864;5.176;2023-04-24T10:16:34;11.70;99.90
19941;DHT22;10132;50.864;5.176;2023-04-24T10:18:36;11.60;99.90
19941;DHT22;10132;50.864;5.176;2023-04-24T10:20:40;11.60;99.90
19941;DHT22;10132;50.864;5.176;2023-04-24T10:22:42;11.50;99.90
19941;DHT22;10132;50.864;5.176;2023-04-24T10:24:47;11.40;99.90
19941;DHT22;10132;50.864;5.176;2023-04-24T10:26:50;11.30;99.90
19941;DHT22;10132;50.864;5.176;2023-04-24T10:28:54;11.10;99.90
19941;DHT22;10132;50.864;5.176;2023-04-24T10:30:59;11.00;99.90
19941;DHT22;10132;50.864;5.176;2023-04-24T10:33:02;10.90;99.90
19941;DHT22;10132;50.864;5.176;2023-04-24T10:35:06;10.90;99.90
19941;DHT22;10132;50.864;5.176;2023-04-24T10:37:08;11.10;99.90
19941;DHT22;10132;50.864;5.176;2023-04-24T10:39:13;11.10;99.90
19941;DHT22;10132;50.864;5.176;2023-04-24T10:41:18;11.30;99.90
19941;DHT22;10132;50.864;5.176;2023-04-24T10:43:23;12.10;99.90
19941;DHT22;10132;50.864;5.176;2023-04-24T10:45:27;12.10;99.90
19941;DHT22;10132;50.864;5.176;2023-04-24T10:47:29;12.60;99.90
19941;DHT22;10132;50.864;5.176;2023-04-24T10:49:31;12.90;99.90
19941;DHT22;10132;50.864;5.176;2023-04-24T10:51:47;12.80;99.90
19941;DHT22;10132;50.864;5.176;2023-04-24T10:53:50;12.70;99.90
19941;DHT22;10132;50.864;5.176;2023-04-24T10:55:58;12.70;99.90
19941;DHT22;10132;50.864;5.176;2023-04-24T10:58:03;12.50;99.90
19941;DHT22;10132;50.864;5.176;2023-04-24T11:00:18;12.00;99.90
19941;DHT22;10132;50.864;5.176;2023-04-24T11:02:36;12.00;99.90
19941;DHT22;10132;50.864;5.176;2023-04-24T11:04:38;11.90;99.90
19941;DHT22;10132;50.864;5.176;2023-04-24T11:06:40;12.00;99.90
19941;DHT22;10132;50.864;5.176;2023-04-24T11:08:45;12.10;99.90
19941;DHT22;10132;50.864;5.176;2023-04-24T11:10:55;12.00;99.90
19941;DHT22;10132;50.864;5.176;2023-04-24T11:12:57;12.40;99.90
19941;DHT22;10132;50.864;5.176;2023-04-24T11:15:01;12.40;99.90
19941;DHT22;10132;50.864;5.176;2023-04-24T11:17:03;12.30;99.90
19941;DHT22;10132;50.864;5.176;2023-04-24T11:19:08;12.00;99.90
19941;DHT22;10132;50.864;5.176;2023-04-24T11:21:11;12.00;99.90
19941;DHT22;10132;50.864;5.176;2023-04-24T11:23:13;11.90;99.90
19941;DHT22;10132;50.864;5.176;2023-04-24T11:25:15;11.90;99.90
19941;DHT22;10132;50.864;5.176;2023-04-24T11:27:20;12.20;99.90
19941;DHT22;10132;50.864;5.176;2023-04-24T11:29:24;12.20;99.90
19941;DHT22;10132;50.864;5.176;2023-04-24T11:31:40;12.30;99.90
19941;DHT22;10132;50.864;5.176;2023-04-24T11:33:42;12.30;99.90
19941;DHT22;10132;50.864;5.176;2023-04-24T11:35:47;12.20;99.90
19941;DHT22;10132;50.864;5.176;2023-04-24T11:37:50;12.10;99.90
19941;DHT22;10132;50.864;5.176;2023-04-24T11:39:54;12.00;99.90
19941;DHT22;10132;50.864;5.176;2023-04-24T11:42:02;12.00;99.90
19941;DHT22;10132;50.864;5.176;2023-04-24T11:44:06;12.00;99.90
19941;DHT22;10132;50.864;5.176;2023-04-24T11:46:08;12.00;99.90
19941;DHT22;10132;50.864;5.176;2023-04-24T11:48:11;12.30;99.90
19941;DHT22;10132;50.864;5.176;2023-04-24T11:50:15;12.30;99.90
19941;DHT22;10132;50.864;5.176;2023-04-24T11:52:19;12.10;99.90
19941;DHT22;10132;50.864;5.176;2023-04-24T11:54:21;12.30;99.90
19941;DHT22;10132;50.864;5.176;2023-04-24T11:56:24;12.40;99.90
19941;DHT22;10132;50.864;5.176;2023-04-24T11:58:26;12.50;99.90
19941;DHT22;10132;50.864;5.176;2023-04-24T12:00:30;12.60;99.90
19941;DHT22;10132;50.864;5.176;2023-04-24T12:02:34;12.70;99.90
19941;DHT22;10132;50.864;5.176;2023-04-24T12:04:40;12.70;99.90
19941;DHT22;10132;50.864;5.176;2023-04-24T12:07:00;13.00;99.90
19941;DHT22;10132;50.864;5.176;2023-04-24T12:09:04;13.00;99.90
19941;DHT22;10132;50.864;5.176;2023-04-24T12:11:07;13.10;99.90
19941;DHT22;10132;50.864;5.176;2023-04-24T12:13:09;12.80;99.90
19941;DHT22;10132;50.864;5.176;2023-04-24T12:15:12;12.80;99.90
19941;DHT22;10132;50.864;5.176;2023-04-24T12:17:14;13.10;99.90
19941;DHT22;10132;50.864;5.176;2023-04-24T12:19:20;13.10;99.90
19941;DHT22;10132;50.864;5.176;2023-04-24T12:21:22;12.70;99.90
19941;DHT22;10132;50.864;5.176;2023-04-24T12:23:36;13.00;99.90
19941;DHT22;10132;50.864;5.176;2023-04-24T12:25:39;13.00;99.90
19941;DHT22;10132;50.864;5.176;2023-04-24T12:27:43;13.30;99.90
19941;DHT22;10132;50.864;5.176;2023-04-24T12:29:52;13.30;99.90
19941;DHT22;10132;50.864;5.176;2023-04-24T12:31:54;12.70;99.90
19941;DHT22;10132;50.864;5.176;2023-04-24T12:33:56;12.90;99.90
19941;DHT22;10132;50.864;5.176;2023-04-24T12:35:59;13.00;99.90
19941;DHT22;10132;50.864;5.176;2023-04-24T12:38:09;13.40;99.90
19941;DHT22;10132;50.864;5.176;2023-04-24T12:40:12;13.30;99.90
19941;DHT22;10132;50.864;5.176;2023-04-24T12:42:26;13.30;99.90
19941;DHT22;10132;50.864;5.176;2023-04-24T12:44:31;13.40;99.90
19941;DHT22;10132;50.864;5.176;2023-04-24T12:46:34;13.30;99.90
19941;DHT22;10132;50.864;5.176;2023-04-24T12:48:36;13.10;99.90
19941;DHT22;10132;50.864;5.176;2023-04-24T12:50:39;13.20;99.90
19941;DHT22;10132;50.864;5.176;2023-04-24T12:52:41;13.00;99.90
19941;DHT22;10132;50.864;5.176;2023-04-24T12:54:43;13.40;99.90
19941;DHT22;10132;50.864;5.176;2023-04-24T12:56:45;13.40;99.90
19941;DHT22;10132;50.864;5.176;2023-04-24T12:58:48;13.70;99.90
19941;DHT22;10132;50.864;5.176;2023-04-24T13:00:52;13.60;99.90
19941;DHT22;10132;50.864;5.176;2023-04-24T13:02:55;13.80;99.90
19941;DHT22;10132;50.864;5.176;2023-04-24T13:04:58;13.80;99.90
19941;DHT22;10132;50.864;5.176;2023-04-24T13:07:00;14.10;99.90